Time;durP1;ratioP1;P1;durP2;ratioP2;P2;SDS_P1;SDS_P2;PMS_P1;PMS_P2;Temp;Humidity;BMP_temperature;BMP_pressure;BME280_temperature;BME280_humidity;BME280_pressure;Samples;Min_cycle;Max_cycle;Signal;HPM_P1;HPM_P2
2023/06/09 00:02:22;;;;;;;13.98;7.40;;;;;;;14.02;78.38;100847.06;4954335;29;20054;-47
2023/06/09 00:04:50;;;;;;;17.67;8.15;;;;;;;13.99;78.62;100843.03;4954481;29;20048;-45
2023/06/09 00:07:17;;;;;;;18.35;8.23;;;;;;;13.97;78.71;100853.72;4954729;29;20039;-47
2023/06/09 00:09:44;;;;;;;18.60;7.47;;;;;;;13.94;78.66;100843.31;4954195;29;20513;-46
2023/06/09 00:12:12;;;;;;;19.25;7.70;;;;;;;13.91;78.84;100844.06;4941536;29;20552;-46
2023/06/09 00:14:39;;;;;;;22.00;10.98;;;;;;;13.89;79.00;100845.59;4953166;29;20051;-45
2023/06/09 00:17:09;;;;;;;17.88;8.60;;;;;;;13.87;79.02;100836.81;4954556;29;20049;-46
2023/06/09 00:19:37;;;;;;;19.95;8.68;;;;;;;13.85;79.23;100848.28;4954025;29;20143;-45
2023/06/09 00:22:05;;;;;;;17.27;9.05;;;;;;;13.84;79.36;100843.09;4954245;29;20478;-48
2023/06/09 00:24:32;;;;;;;22.17;9.40;;;;;;;13.80;79.50;100842.19;4953006;29;20094;-45
2023/06/09 00:26:59;;;;;;;19.80;9.23;;;;;;;13.77;79.62;100829.81;4954591;29;20404;-44
2023/06/09 00:29:26;;;;;;;17.30;9.30;;;;;;;13.76;79.74;100833.78;4952999;29;20074;-46
2023/06/09 00:31:53;;;;;;;18.27;8.90;;;;;;;13.73;80.00;100834.50;4953460;28;20508;-44
2023/06/09 00:34:19;;;;;;;21.67;9.38;;;;;;;13.70;80.10;100838.03;4953441;29;20038;-46
2023/06/09 00:36:46;;;;;;;18.13;9.77;;;;;;;13.68;80.41;100834.81;4954387;29;20055;-46
2023/06/09 00:39:13;;;;;;;18.73;9.63;;;;;;;13.66;80.42;100830.78;4953598;29;20143;-45
2023/06/09 00:41:41;;;;;;;23.02;9.98;;;;;;;13.65;80.62;100834.72;4953640;29;20089;-45
2023/06/09 00:44:08;;;;;;;21.38;9.27;;;;;;;13.63;80.64;100837.88;4953611;29;20050;-45
2023/06/09 00:46:35;;;;;;;18.52;9.60;;;;;;;13.62;80.96;100841.81;4935990;29;20094;-45
2023/06/09 00:49:04;;;;;;;56.33;13.05;;;;;;;13.63;81.08;100845.41;4953222;28;20052;-45
2023/06/09 00:51:35;;;;;;;14.02;9.00;;;;;;;13.62;81.14;100841.81;4953565;29;20147;-44
2023/06/09 00:54:03;;;;;;;15.88;9.52;;;;;;;13.61;81.08;100839.41;4952960;29;20094;-46
2023/06/09 00:56:32;;;;;;;13.52;8.00;;;;;;;13.61;81.28;100842.97;4953519;29;20520;-44
2023/06/09 00:58:59;;;;;;;17.60;8.63;;;;;;;13.57;81.32;100833.75;4953291;29;20561;-47
2023/06/09 01:01:28;;;;;;;20.80;9.50;;;;;;;13.58;81.57;100827.00;4953427;29;20059;-44
2023/06/09 01:03:55;;;;;;;21.02;8.85;;;;;;;13.57;81.48;100827.38;4951917;28;20138;-46
2023/06/09 01:07:01;;;;;;;15.85;8.38;;;;;;;13.56;81.97;100831.31;4953054;29;20110;-46
2023/06/09 01:10:09;;;;;;;22.05;8.82;;;;;;;13.51;81.76;100835.19;4930859;29;20043;-46
2023/06/09 01:12:51;;;;;;;21.60;9.85;;;;;;;13.46;81.74;100835.47;4943640;29;20075;-47
2023/06/09 01:15:22;;;;;;;17.48;9.32;;;;;;;13.45;81.96;100833.84;4952819;29;20043;-45
2023/06/09 01:17:55;;;;;;;17.25;8.68;;;;;;;13.46;82.23;100832.69;4953184;29;20137;-45
2023/06/09 01:20:36;;;;;;;15.73;9.13;;;;;;;13.44;82.12;100835.03;4952627;29;20046;-44
2023/06/09 01:23:21;;;;;;;18.60;8.70;;;;;;;13.42;82.23;100831.81;4949126;29;20051;-48
2023/06/09 01:25:52;;;;;;;15.23;8.23;;;;;;;13.39;82.22;100824.19;4953641;28;20134;-45
2023/06/09 01:28:23;;;;;;;16.55;7.55;;;;;;;13.36;82.34;100830.47;4952816;29;20039;-46
2023/06/09 01:30:51;;;;;;;16.00;8.00;;;;;;;13.34;82.59;100827.25;4953038;29;20051;-44
2023/06/09 01:33:22;;;;;;;17.95;8.00;;;;;;;13.34;82.54;100830.06;4953004;29;20043;-46
2023/06/09 01:35:50;;;;;;;17.77;7.90;;;;;;;13.32;82.54;100826.81;4952949;29;20054;-44
2023/06/09 01:38:23;;;;;;;19.95;7.97;;;;;;;13.29;82.79;100833.09;4952107;29;20472;-44
2023/06/09 01:40:50;;;;;;;14.40;6.95;;;;;;;13.28;82.95;100835.06;4943589;29;20048;-44
2023/06/09 01:43:17;;;;;;;22.05;7.13;;;;;;;13.27;82.99;100841.78;4952945;29;20055;-47
2023/06/09 01:45:44;;;;;;;12.57;7.25;;;;;;;13.25;83.18;100829.41;4953184;29;20404;-46
2023/06/09 01:48:23;;;;;;;15.88;6.38;;;;;;;13.23;83.59;100832.56;4953202;29;20501;-47
2023/06/09 01:51:11;;;;;;;20.70;7.70;;;;;;;13.22;83.72;100838.47;4951577;29;20494;-45
2023/06/09 01:53:41;;;;;;;22.73;7.40;;;;;;;13.20;83.51;100830.50;4952838;29;20040;-45
2023/06/09 01:56:19;;;;;;;9.63;6.50;;;;;;;13.20;83.73;100830.50;4951751;29;20521;-45
2023/06/09 01:58:51;;;;;;;11.98;6.50;;;;;;;13.18;83.82;100838.41;4948961;29;20121;-45
2023/06/09 02:01:18;;;;;;;;;;;;;;;13.16;84.02;100831.56;4953132;29;20063;-45
2023/06/09 02:03:49;;;;;;;12.02;6.07;;;;;;;13.14;83.71;100831.13;4953141;29;19929;-45
2023/06/09 02:06:19;;;;;;;12.43;5.50;;;;;;;13.13;83.63;100824.75;4935224;29;20130;-45
2023/06/09 02:08:46;;;;;;;13.90;6.72;;;;;;;13.13;83.85;100821.97;4953061;29;20081;-47
2023/06/09 02:11:13;;;;;;;17.27;7.15;;;;;;;13.13;83.93;100824.75;4952675;29;20055;-47
2023/06/09 02:13:40;;;;;;;22.35;7.40;;;;;;;13.13;83.83;100830.31;4940270;29;20052;-44
2023/06/09 02:16:07;;;;;;;12.77;6.00;;;;;;;13.11;83.94;100827.09;4954253;28;20058;-43
2023/06/09 02:18:34;;;;;;;14.80;5.85;;;;;;;13.10;84.04;100821.91;4938950;29;20043;-44
2023/06/09 02:21:00;;;;;;;22.48;7.10;;;;;;;13.08;84.02;100832.59;4954719;29;20426;-44
2023/06/09 02:23:28;;;;;;;12.15;6.03;;;;;;;13.08;84.19;100829.81;4937980;29;20058;-44
2023/06/09 02:25:55;;;;;;;11.73;6.25;;;;;;;13.06;84.17;100835.69;4956162;29;20047;-44
2023/06/09 02:28:21;;;;;;;13.73;5.60;;;;;;;13.04;84.16;100826.09;4952056;28;20039;-44
2023/06/09 02:30:49;;;;;;;17.15;5.65;;;;;;;13.02;84.41;100839.56;4949836;29;20151;-45
2023/06/09 02:33:18;;;;;;;11.80;6.05;;;;;;;13.00;84.53;100830.78;4942083;29;20058;-45
2023/06/09 02:35:45;;;;;;;17.27;5.60;;;;;;;12.97;84.48;100837.03;4951281;28;20047;-44
2023/06/09 02:38:12;;;;;;;19.08;7.22;;;;;;;12.93;84.54;100836.13;4956049;29;20047;-45
2023/06/09 02:40:43;;;;;;;16.80;5.78;;;;;;;12.91;84.86;100825.38;4955574;29;20054;-45
2023/06/09 02:43:11;;;;;;;11.18;5.55;;;;;;;12.88;84.83;100828.88;4956332;29;20049;-45
2023/06/09 02:45:38;;;;;;;16.52;5.47;;;;;;;12.88;84.90;100820.53;4954374;29;20063;-46
2023/06/09 02:48:05;;;;;;;32.47;6.35;;;;;;;12.84;84.96;100823.22;4944230;29;20043;-44
2023/06/09 02:50:33;;;;;;;13.88;5.75;;;;;;;12.84;85.16;100817.66;4955498;29;20051;-44
2023/06/09 02:53:00;;;;;;;24.33;6.15;;;;;;;12.82;84.89;100819.19;4955985;29;20043;-44
2023/06/09 02:55:28;;;;;;;22.90;6.07;;;;;;;12.81;85.05;100812.81;4955514;29;20126;-44
2023/06/09 02:57:55;;;;;;;18.05;5.72;;;;;;;12.80;84.94;100819.56;4955586;28;20110;-45
2023/06/09 03:02:53;;;;;;;14.60;5.93;;;;;;;12.75;85.05;100802.34;4740302;23;20469;-45
2023/06/09 03:05:20;;;;;;;18.17;5.13;;;;;;;12.72;85.19;100803.88;4938122;29;20621;-44
2023/06/09 03:07:49;;;;;;;25.15;5.75;;;;;;;12.70;85.19;100811.78;4955358;29;20043;-44
2023/06/09 03:10:16;;;;;;;18.70;5.38;;;;;;;12.69;85.34;100818.47;4955150;29;20122;-44
2023/06/09 03:12:43;;;;;;;20.27;5.80;;;;;;;12.65;85.44;100808.44;4955594;29;20058;-44
2023/06/09 03:15:10;;;;;;;16.15;5.88;;;;;;;12.63;85.38;100811.56;4955461;29;20043;-45
2023/06/09 03:17:37;;;;;;;22.60;5.78;;;;;;;12.60;85.50;100815.06;4955317;29;20051;-45
2023/06/09 03:20:06;;;;;;;17.20;5.72;;;;;;;12.58;85.64;100806.28;4949154;29;20423;-44
2023/06/09 03:22:33;;;;;;;17.35;5.93;;;;;;;12.55;85.54;100801.44;4945398;29;20103;-45
2023/06/09 03:25:01;;;;;;;21.63;5.88;;;;;;;12.51;85.61;100803.31;4953270;29;20102;-46
2023/06/09 03:27:29;;;;;;;26.35;5.18;;;;;;;12.47;85.75;100810.75;4952185;28;20528;-44
2023/06/09 03:29:56;;;;;;;20.17;5.88;;;;;;;12.46;85.83;100808.34;4953179;29;20130;-47
2023/06/09 03:32:22;;;;;;;18.65;5.82;;;;;;;12.43;85.72;100801.53;4953747;29;20129;-44
2023/06/09 03:34:49;;;;;;;19.38;5.97;;;;;;;12.37;85.88;100802.94;4951942;28;20051;-45
2023/06/09 03:37:16;;;;;;;17.17;5.43;;;;;;;12.34;85.94;100819.53;4952051;28;20047;-45
2023/06/09 03:39:43;;;;;;;18.80;6.55;;;;;;;12.31;85.83;100815.47;4953727;29;20079;-44
2023/06/09 03:42:09;;;;;;;16.25;6.00;;;;;;;12.28;85.88;100805.09;4954849;29;20482;-44
2023/06/09 03:44:37;;;;;;;15.75;5.88;;;;;;;12.27;85.91;100813.75;4954419;28;20087;-44
2023/06/09 03:47:04;;;;;;;16.40;6.13;;;;;;;12.25;85.95;100810.53;4954631;29;20055;-44
2023/06/09 03:49:30;;;;;;;20.17;5.97;;;;;;;12.23;86.14;100816.44;4954822;28;20050;-46
2023/06/09 03:51:58;;;;;;;12.48;5.95;;;;;;;12.22;86.26;100812.06;4954697;29;20073;-44
2023/06/09 03:54:26;;;;;;;17.92;5.38;;;;;;;12.19;86.22;100801.66;4953702;29;20122;-44
2023/06/09 03:56:53;;;;;;;16.08;5.25;;;;;;;12.18;85.96;100811.13;4954065;29;20823;-44
2023/06/09 03:59:20;;;;;;;10.60;5.28;;;;;;;12.19;86.22;100809.97;4954353;29;20059;-44
2023/06/09 04:01:48;;;;;;;17.30;6.72;;;;;;;12.16;86.01;100808.72;4954186;29;20103;-44
2023/06/09 04:04:15;;;;;;;14.52;5.47;;;;;;;12.17;86.22;100806.75;4952386;28;20057;-44
2023/06/09 04:06:45;;;;;;;14.00;6.78;;;;;;;12.14;86.20;100805.50;4937024;29;20059;-45
2023/06/09 04:09:15;;;;;;;32.65;7.00;;;;;;;12.13;86.13;100798.31;4954274;29;20085;-44
2023/06/09 04:11:43;;;;;;;14.75;5.72;;;;;;;12.11;86.34;100805.38;4953296;28;20146;-44
2023/06/09 04:14:10;;;;;;;19.63;6.85;;;;;;;12.09;86.22;100807.72;4953826;29;20054;-44
2023/06/09 04:16:37;;;;;;;20.65;5.05;;;;;;;12.08;86.22;100800.53;4953971;29;20378;-44
2023/06/09 04:19:04;;;;;;;14.10;6.13;;;;;;;12.07;86.42;100798.94;4953809;29;20059;-44
2023/06/09 04:21:30;;;;;;;14.40;5.03;;;;;;;12.05;86.40;100804.03;4954054;28;20047;-45
2023/06/09 04:23:57;;;;;;;17.27;5.20;;;;;;;12.04;86.56;100805.19;4953852;29;20054;-45
2023/06/09 04:26:25;;;;;;;15.82;5.85;;;;;;;12.06;86.73;100805.66;4953863;29;20129;-45
2023/06/09 04:28:53;;;;;;;16.92;5.15;;;;;;;12.05;86.79;100795.69;4953087;29;20053;-48
2023/06/09 04:31:23;;;;;;;16.70;6.15;;;;;;;12.04;86.67;100794.09;4953748;29;20062;-44
2023/06/09 04:33:52;;;;;;;16.90;6.70;;;;;;;12.05;86.58;100799.28;4952576;28;20043;-44
2023/06/09 04:36:20;;;;;;;11.90;4.68;;;;;;;12.06;86.70;100791.78;4953231;28;20051;-44
2023/06/09 04:38:48;;;;;;;20.88;6.93;;;;;;;12.06;86.69;100789.00;4948860;28;20682;-50
2023/06/09 04:41:17;;;;;;;21.42;5.80;;;;;;;12.07;86.76;100787.84;4948427;29;20759;-46
2023/06/09 04:43:45;;;;;;;20.65;7.00;;;;;;;12.06;86.81;100787.03;4953506;29;20046;-45
2023/06/09 04:46:13;;;;;;;13.55;5.57;;;;;;;12.08;86.84;100783.88;4952516;29;20437;-43
2023/06/09 04:48:41;;;;;;;19.15;6.57;;;;;;;12.08;86.79;100784.72;4948738;28;20537;-47
2023/06/09 04:51:10;;;;;;;14.48;4.82;;;;;;;12.09;86.78;100785.50;4953564;29;20049;-44
2023/06/09 04:53:37;;;;;;;18.38;5.38;;;;;;;12.09;86.66;100796.63;4953648;29;20059;-45
2023/06/09 04:56:06;;;;;;;11.88;4.32;;;;;;;12.10;86.76;100793.47;4953298;29;20489;-45
2023/06/09 04:58:35;;;;;;;18.10;4.53;;;;;;;12.09;86.72;100796.63;4953270;29;20050;-44
2023/06/09 05:01:03;;;;;;;21.73;6.88;;;;;;;12.09;86.85;100802.16;4953060;29;20063;-44
2023/06/09 05:03:29;;;;;;;14.10;5.55;;;;;;;12.09;86.88;100808.53;4950904;28;20055;-44
2023/06/09 05:05:56;;;;;;;17.60;5.85;;;;;;;12.11;87.07;100805.38;4953287;29;20080;-44
2023/06/09 05:08:24;;;;;;;17.55;5.65;;;;;;;12.12;86.70;100798.69;4952648;29;20058;-46
2023/06/09 05:10:52;;;;;;;14.10;5.32;;;;;;;12.12;86.92;100804.25;4952983;29;20039;-46
2023/06/09 05:13:19;;;;;;;18.45;5.18;;;;;;;12.14;86.86;100799.13;4953295;29;20046;-47
2023/06/09 05:15:47;;;;;;;19.60;5.65;;;;;;;12.16;86.82;100796.81;4953147;28;20146;-44
2023/06/09 05:18:17;;;;;;;16.02;5.30;;;;;;;12.21;87.04;100807.66;4952951;29;20078;-45
2023/06/09 05:20:44;;;;;;;15.98;4.95;;;;;;;12.21;86.52;100799.31;4951972;29;20504;-44
2023/06/09 05:23:12;;;;;;;13.43;5.03;;;;;;;12.22;86.96;100800.94;4953041;29;20043;-44
2023/06/09 05:25:39;;;;;;;14.88;5.30;;;;;;;12.26;86.96;100801.06;4952827;29;20058;-44
2023/06/09 05:28:05;;;;;;;16.08;5.93;;;;;;;12.28;86.94;100802.31;4952795;29;20544;-44
2023/06/09 05:30:32;;;;;;;23.17;6.60;;;;;;;12.32;86.68;100796.84;4952880;29;20738;-44
2023/06/09 05:32:59;;;;;;;15.25;4.97;;;;;;;12.33;86.91;100809.56;4952438;28;20046;-45
2023/06/09 05:35:26;;;;;;;14.20;6.38;;;;;;;12.35;86.73;100807.22;4952158;28;20442;-43
2023/06/09 05:37:54;;;;;;;18.38;5.55;;;;;;;12.38;86.88;100803.75;4952461;28;20051;-44
2023/06/09 05:40:21;;;;;;;19.13;6.38;;;;;;;12.41;86.91;100811.38;4952980;29;20142;-43
2023/06/09 05:42:49;;;;;;;10.98;4.05;;;;;;;12.46;86.88;100803.59;4952891;29;20770;-43
2023/06/09 05:45:16;;;;;;;21.42;5.97;;;;;;;12.51;86.84;100797.78;4952677;29;20051;-44
2023/06/09 05:47:43;;;;;;;22.80;5.40;;;;;;;12.57;86.97;100806.66;4952659;29;20079;-46
2023/06/09 05:50:10;;;;;;;9.43;4.25;;;;;;;12.61;86.85;100808.34;4953143;28;20036;-46
2023/06/09 05:52:37;;;;;;;11.98;4.85;;;;;;;12.64;86.72;100799.31;4955893;29;20107;-45
2023/06/09 05:55:04;;;;;;;15.15;5.50;;;;;;;12.66;86.67;100810.84;4956606;28;20063;-47
2023/06/09 05:57:32;;;;;;;19.92;7.95;;;;;;;12.68;86.61;100814.06;4954657;28;20051;-46
2023/06/09 06:00:00;;;;;;;11.35;4.97;;;;;;;12.72;86.73;100816.94;4955699;28;20456;-47
2023/06/09 06:02:27;;;;;;;13.65;5.05;;;;;;;12.76;86.56;100801.19;4956289;29;20575;-47
2023/06/09 06:04:54;;;;;;;13.43;5.10;;;;;;;12.74;86.34;100798.75;4956405;29;20122;-49
2023/06/09 06:07:21;;;;;;;15.85;5.38;;;;;;;12.78;86.38;100796.91;4956068;29;20648;-46
2023/06/09 06:09:48;;;;;;;16.60;4.25;;;;;;;12.83;86.29;100796.63;4955555;29;20138;-46
2023/06/09 06:12:15;;;;;;;12.57;5.00;;;;;;;12.87;86.30;100799.47;4946222;29;20047;-44
2023/06/09 06:14:41;;;;;;;15.43;5.05;;;;;;;12.91;86.09;100794.00;4955996;29;20043;-46
2023/06/09 06:17:08;;;;;;;23.55;6.28;;;;;;;12.95;86.20;100792.13;4956179;29;20051;-46
2023/06/09 06:19:35;;;;;;;14.88;4.90;;;;;;;13.00;85.84;100806.53;4956154;29;20098;-46
2023/06/09 06:22:02;;;;;;;17.10;5.10;;;;;;;13.05;85.75;100805.47;4956355;29;20055;-48
2023/06/09 06:24:29;;;;;;;23.50;8.27;;;;;;;13.11;85.83;100815.16;4955962;29;20047;-44
2023/06/09 06:26:56;;;;;;;15.55;5.43;;;;;;;13.14;85.75;100803.34;4952285;29;20054;-44
2023/06/09 06:29:23;;;;;;;20.25;6.05;;;;;;;13.18;85.72;100795.91;4955697;29;20044;-45
2023/06/09 06:31:49;;;;;;;14.50;5.60;;;;;;;13.20;85.55;100796.34;4955583;28;20059;-44
2023/06/09 06:34:16;;;;;;;14.30;5.32;;;;;;;13.21;85.33;100803.53;4936497;29;20107;-45
2023/06/09 06:36:43;;;;;;;9.80;5.15;;;;;;;13.23;85.23;100807.56;4955705;29;20129;-47
2023/06/09 06:39:12;;;;;;;15.60;5.00;;;;;;;13.24;85.29;100814.72;4956020;29;20070;-48
2023/06/09 06:41:39;;;;;;;10.02;4.43;;;;;;;13.27;85.31;100813.19;4956037;29;20051;-44
2023/06/09 06:44:06;;;;;;;20.88;4.93;;;;;;;13.30;85.22;100806.91;4954936;29;20494;-44
2023/06/09 06:46:33;;;;;;;15.00;5.47;;;;;;;13.33;84.99;100803.41;4955602;29;20047;-43
2023/06/09 06:49:01;;;;;;;18.60;5.95;;;;;;;13.39;84.97;100805.56;4955711;29;20059;-46
2023/06/09 06:51:28;;;;;;;17.23;5.80;;;;;;;13.44;84.83;100798.88;4956029;29;20051;-45
2023/06/09 06:53:55;;;;;;;15.95;5.38;;;;;;;13.54;84.91;100811.41;4955530;29;20044;-45
2023/06/09 06:56:22;;;;;;;21.95;5.15;;;;;;;13.63;84.86;100810.06;4954315;28;20035;-46
2023/06/09 06:58:49;;;;;;;15.50;5.00;;;;;;;13.72;84.71;100807.84;4955471;29;20484;-46
2023/06/09 07:01:22;;;;;;;15.80;5.13;;;;;;;13.75;84.55;100809.09;4954527;28;20057;-46
2023/06/09 07:03:50;;;;;;;12.82;4.22;;;;;;;13.76;84.56;100808.75;4953681;29;20142;-46
2023/06/09 07:06:19;;;;;;;23.80;6.78;;;;;;;13.79;84.61;100808.00;4955204;29;20522;-47
2023/06/09 07:08:46;;;;;;;13.27;5.38;;;;;;;13.87;84.77;100803.41;4954195;29;20039;-46
2023/06/09 07:11:13;;;;;;;14.77;5.55;;;;;;;13.92;84.46;100800.31;4955353;29;20059;-46
2023/06/09 07:13:40;;;;;;;12.80;5.22;;;;;;;13.98;84.97;100805.22;4955025;29;20087;-47
2023/06/09 07:16:07;;;;;;;11.63;5.00;;;;;;;14.13;85.54;100799.94;4955262;29;20458;-47
2023/06/09 07:18:34;;;;;;;13.18;4.55;;;;;;;14.29;86.18;100807.03;4954463;29;20039;-44
2023/06/09 07:21:02;;;;;;;20.50;4.93;;;;;;;14.43;86.47;100809.31;4950339;29;20509;-46
2023/06/09 07:23:31;;;;;;;11.30;4.45;;;;;;;14.57;87.32;100804.81;4950444;28;20043;-44
2023/06/09 07:25:58;;;;;;;15.77;4.85;;;;;;;14.73;87.43;100820.59;4948899;28;20062;-45
2023/06/09 07:28:24;;;;;;;14.35;4.82;;;;;;;14.81;87.62;100814.78;4954896;28;20059;-45
2023/06/09 07:30:51;;;;;;;18.05;5.30;;;;;;;14.89;87.56;100815.72;4955235;29;20047;-44
2023/06/09 07:33:19;;;;;;;23.40;6.07;;;;;;;15.00;87.81;100830.63;4954461;29;20099;-46
2023/06/09 07:35:48;;;;;;;15.38;4.88;;;;;;;15.13;87.64;100815.31;4946494;28;20438;-45
2023/06/09 07:38:16;;;;;;;17.98;6.43;;;;;;;15.40;88.34;100836.47;4954680;28;20049;-45
2023/06/09 07:40:43;;;;;;;18.08;5.32;;;;;;;15.63;88.11;100820.50;4943675;28;20046;-48
2023/06/09 07:43:10;;;;;;;17.10;5.55;;;;;;;15.83;87.35;100824.75;4937627;29;20050;-48
2023/06/09 07:45:37;;;;;;;17.85;4.53;;;;;;;15.92;86.28;100824.47;4954582;29;20047;-45
2023/06/09 07:48:04;;;;;;;20.35;5.82;;;;;;;16.17;86.35;100819.19;4954634;28;20111;-45
2023/06/09 07:50:31;;;;;;;20.58;6.40;;;;;;;16.67;86.16;100820.56;4954844;29;20053;-44
2023/06/09 07:53:16;;;;;;;13.70;5.38;;;;;;;17.29;84.80;100819.50;4939140;29;20432;-44
2023/06/09 07:55:44;;;;;;;20.45;4.72;;;;;;;17.89;82.95;100830.31;4954313;29;20047;-47
2023/06/09 07:58:11;;;;;;;16.38;5.25;;;;;;;18.43;80.62;100824.50;4954261;29;20051;-47
2023/06/09 08:00:38;;;;;;;21.42;5.47;;;;;;;18.90;78.30;100817.81;4954248;28;20074;-46
2023/06/09 08:03:05;;;;;;;32.97;7.15;;;;;;;19.31;75.77;100821.00;4952780;28;20059;-45
2023/06/09 08:05:32;;;;;;;12.25;4.40;;;;;;;19.81;73.26;100821.72;4954132;29;20047;-44
2023/06/09 08:08:03;;;;;;;16.48;5.60;;;;;;;20.28;71.27;100823.19;4954718;29;20142;-44
2023/06/09 08:10:30;;;;;;;15.43;5.25;;;;;;;20.59;69.44;100834.28;4952957;28;20051;-45
2023/06/09 08:12:57;;;;;;;13.02;4.88;;;;;;;20.71;67.05;100832.97;4953993;28;20047;-48
2023/06/09 08:15:23;;;;;;;13.02;4.63;;;;;;;20.87;65.99;100832.47;4954096;29;20055;-45
2023/06/09 08:17:50;;;;;;;12.13;4.53;;;;;;;21.17;64.78;100827.84;4954065;29;20058;-46
2023/06/09 08:20:17;;;;;;;12.45;4.40;;;;;;;21.53;63.61;100830.31;4936949;29;20654;-46
2023/06/09 08:22:44;;;;;;;11.02;4.05;;;;;;;21.86;62.46;100826.78;4953980;29;20044;-47
2023/06/09 08:25:11;;;;;;;15.65;4.82;;;;;;;22.23;61.02;100823.91;4954046;29;20043;-47
2023/06/09 08:27:38;;;;;;;14.43;4.50;;;;;;;22.47;60.02;100826.81;4953080;29;20043;-50
2023/06/09 08:30:07;;;;;;;13.23;4.88;;;;;;;22.77;59.05;100835.28;4953757;29;20051;-47
2023/06/09 08:32:36;;;;;;;9.15;4.15;;;;;;;22.84;57.55;100832.34;4951584;28;20158;-45
2023/06/09 08:35:06;;;;;;;13.75;4.50;;;;;;;22.76;56.88;100833.69;4952567;28;20084;-47
2023/06/09 08:37:35;;;;;;;10.03;4.10;;;;;;;22.57;55.85;100839.97;4953599;28;20412;-45
2023/06/09 08:40:07;;;;;;;18.92;4.97;;;;;;;22.61;55.88;100832.28;4949672;28;20128;-46
2023/06/09 08:42:38;;;;;;;14.35;4.35;;;;;;;22.62;55.03;100833.84;4952506;28;20043;-48
2023/06/09 08:45:06;;;;;;;13.23;5.20;;;;;;;22.49;54.77;100836.47;4936907;29;20126;-48
2023/06/09 08:47:36;;;;;;;12.55;4.70;;;;;;;22.39;54.56;100826.94;4953801;29;20055;-45
2023/06/09 08:50:06;;;;;;;13.60;5.28;;;;;;;22.62;54.09;100833.84;4951767;29;20633;-46
2023/06/09 08:52:34;;;;;;;11.65;4.38;;;;;;;22.70;53.58;100835.38;4952158;28;20062;-45
2023/06/09 08:55:03;;;;;;;15.73;4.45;;;;;;;22.83;53.23;100827.94;4953464;29;20047;-45
2023/06/09 08:57:32;;;;;;;11.93;4.43;;;;;;;22.84;52.08;100829.53;4953241;28;20055;-45
2023/06/09 08:59:59;;;;;;;14.10;4.95;;;;;;;22.63;52.50;100827.03;4952503;29;20039;-45
2023/06/09 09:02:26;;;;;;;17.58;4.68;;;;;;;22.81;52.30;100813.44;4951436;28;20592;-46
2023/06/09 09:04:53;;;;;;;11.57;4.32;;;;;;;22.99;51.90;100817.59;4953371;29;20497;-44
2023/06/09 09:07:20;;;;;;;13.57;5.25;;;;;;;23.02;51.63;100824.41;4953292;29;20071;-47
2023/06/09 09:09:47;;;;;;;18.83;5.00;;;;;;;22.80;51.43;100818.28;4952836;29;20493;-48
2023/06/09 09:12:14;;;;;;;13.40;4.25;;;;;;;22.76;51.20;100822.41;4951695;28;20047;-47
2023/06/09 09:14:42;;;;;;;14.80;4.88;;;;;;;22.71;51.17;100814.41;4953179;29;20505;-47
2023/06/09 09:17:10;;;;;;;14.73;4.72;;;;;;;22.75;51.12;100809.50;4952110;29;20046;-46
2023/06/09 09:19:45;;;;;;;16.55;4.75;;;;;;;22.75;50.67;100815.13;4948407;28;21201;-45
2023/06/09 09:22:12;;;;;;;13.32;4.78;;;;;;;22.75;50.63;100818.78;4962557;28;20508;-45
2023/06/09 09:24:45;;;;;;;13.38;4.78;;;;;;;22.66;50.62;100823.34;4952668;28;20055;-46
2023/06/09 09:27:21;;;;;;;17.73;6.60;;;;;;;22.67;50.96;100820.09;4953225;29;20768;-45
2023/06/09 09:29:48;;;;;;;20.23;5.10;;;;;;;22.82;50.51;100815.06;4946136;29;20051;-45
2023/06/09 09:32:16;;;;;;;11.68;4.63;;;;;;;22.94;50.12;100817.28;4951719;28;20114;-46
2023/06/09 09:34:46;;;;;;;21.77;7.40;;;;;;;22.98;50.02;100818.03;4950741;28;20070;-45
2023/06/09 09:37:16;;;;;;;15.93;5.07;;;;;;;22.96;50.14;100803.50;4952704;29;20055;-46
2023/06/09 09:39:53;;;;;;;14.38;5.47;;;;;;;22.93;50.06;100802.34;4952763;29;20055;-45
2023/06/09 09:42:21;;;;;;;14.32;5.22;;;;;;;22.94;49.18;100805.97;4952599;29;20505;-45
2023/06/09 09:44:52;;;;;;;13.63;5.20;;;;;;;23.10;49.08;100819.44;4951352;29;20174;-47
2023/06/09 09:47:19;;;;;;;13.70;4.27;;;;;;;23.12;49.17;100800.81;4952510;28;20466;-45
2023/06/09 09:49:53;;;;;;;15.38;4.90;;;;;;;23.34;49.05;100806.91;4952803;29;20417;-44
2023/06/09 09:52:28;;;;;;;13.35;4.57;;;;;;;23.67;48.63;100810.78;4951347;29;20043;-44
2023/06/09 09:54:58;;;;;;;12.48;5.40;;;;;;;23.45;48.17;100814.00;4952758;29;20047;-45
2023/06/09 09:57:28;;;;;;;20.10;5.72;;;;;;;23.33;48.17;100805.31;4952930;29;20281;-45
2023/06/09 09:59:56;;;;;;;14.10;4.65;;;;;;;23.14;47.98;100800.41;4957294;28;20561;-45
2023/06/09 10:02:24;;;;;;;16.45;4.95;;;;;;;23.07;48.07;100809.78;4951762;28;20075;-44
2023/06/09 10:04:53;;;;;;;11.85;4.75;;;;;;;23.05;47.97;100800.94;4934889;29;20046;-45
2023/06/09 10:07:21;;;;;;;12.55;4.97;;;;;;;23.13;48.06;100804.44;4952401;28;20532;-45
2023/06/09 10:09:51;;;;;;;14.70;5.90;;;;;;;23.27;48.10;100798.56;4951708;28;20080;-50
2023/06/09 10:12:20;;;;;;;12.07;5.00;;;;;;;23.37;47.88;100800.44;4952567;29;20032;-45
2023/06/09 10:14:48;;;;;;;12.75;5.65;;;;;;;23.28;48.03;100792.47;4952430;29;20062;-46
2023/06/09 10:17:19;;;;;;;13.68;4.68;;;;;;;23.11;47.81;100798.44;4951123;28;20070;-41
2023/06/09 10:19:50;;;;;;;18.93;5.77;;;;;;;22.77;48.14;100795.78;4952371;28;20059;-46
2023/06/09 10:22:18;;;;;;;16.58;4.88;;;;;;;22.77;48.38;100805.03;4949511;29;20051;-44
2023/06/09 10:24:46;;;;;;;17.38;5.55;;;;;;;22.70;48.34;100804.34;4950919;28;20058;-45
2023/06/09 10:27:14;;;;;;;14.95;5.43;;;;;;;22.47;48.70;100793.78;4934952;29;20047;-46
2023/06/09 10:29:42;;;;;;;13.38;5.40;;;;;;;22.29;48.74;100794.00;4952263;28;20099;-46
2023/06/09 10:32:12;;;;;;;19.55;8.15;;;;;;;22.12;49.19;100782.97;4951752;28;20051;-46
2023/06/09 10:34:44;;;;;;;16.57;5.63;;;;;;;21.73;50.12;100784.22;4951657;28;20062;-46
2023/06/09 10:37:11;;;;;;;14.68;5.90;;;;;;;21.72;50.61;100793.09;4954296;28;20058;-48
2023/06/09 10:40:09;;;;;;;17.40;6.93;;;;;;;21.60;50.88;100786.00;4938481;29;20046;-47
2023/06/09 10:42:48;;;;;;;14.20;6.53;;;;;;;21.59;51.23;100784.38;4954169;28;20134;-45
2023/06/09 10:45:19;;;;;;;14.88;6.00;;;;;;;21.40;51.50;100792.63;4955949;29;20047;-45
2023/06/09 10:47:48;;;;;;;12.50;5.68;;;;;;;21.32;51.78;100793.91;4954937;28;20039;-46
2023/06/09 10:50:30;;;;;;;16.67;6.30;;;;;;;20.92;52.06;100784.19;4955646;29;20450;-45
2023/06/09 10:52:58;;;;;;;17.05;7.18;;;;;;;20.71;52.38;100785.16;4942881;29;20143;-45
2023/06/09 10:55:30;;;;;;;16.58;7.70;;;;;;;20.54;53.06;100783.28;4955402;29;20090;-46
2023/06/09 10:57:57;;;;;;;18.00;7.93;;;;;;;20.38;53.14;100794.22;4953346;29;20051;-43
2023/06/09 11:00:25;;;;;;;14.48;6.70;;;;;;;20.35;53.85;100789.41;4944315;29;20054;-43
2023/06/09 11:03:08;;;;;;;11.60;7.15;;;;;;;20.28;53.51;100789.47;4955637;29;20057;-44
2023/06/09 11:05:43;;;;;;;15.15;8.32;;;;;;;20.09;54.14;100787.91;4955076;28;20059;-45
2023/06/09 11:08:10;;;;;;;13.32;7.63;;;;;;;20.12;54.24;100798.31;4954847;28;20047;-44
2023/06/09 11:10:37;;;;;;;18.70;7.70;;;;;;;20.12;54.31;100800.34;4955145;29;20039;-44
2023/06/09 11:13:37;;;;;;;14.07;7.50;;;;;;;19.99;54.35;100795.16;4949168;29;20044;-43
2023/06/09 11:16:04;;;;;;;17.17;7.95;;;;;;;19.76;55.02;100791.25;4954094;28;20055;-46
2023/06/09 11:18:31;;;;;;;27.30;10.75;;;;;;;19.81;55.12;100788.81;4953889;28;20079;-46
2023/06/09 11:21:09;;;;;;;22.08;7.60;;;;;;;19.88;55.34;100802.84;4954486;28;20047;-48
2023/06/09 11:23:55;;;;;;;18.67;8.88;;;;;;;19.76;55.36;100805.28;4942710;28;20054;-45
2023/06/09 11:26:23;;;;;;;19.15;7.88;;;;;;;19.68;55.60;100804.50;4955036;28;20110;-44
2023/06/09 11:28:50;;;;;;;16.38;8.25;;;;;;;19.58;55.95;100807.34;4954971;29;20111;-45